Atlantis — PCDT — position and weather

sailwx.info

Track history (hours):
 
Tides and Currents Weather Stations Pressure Air Temp Water Temp Dewpoint Dewpoint Depression Visibility Wind Speed Wind Dir Waves Ship Positions

Atlantis (Netherlands)

Ship's website: http://www.tallship-company.com/artemis/gb_atlantis.htm

Last reported at 2016-May-03 06:33 UTC. Time now 2016-May-03 06:53 UTC.
Position N 53°33' E 009°56'.

Length 40 m; draft 4.5 m.

Type: Sailing vessel. MMSI: 246253000.

Date/timePositionNaut miles runAvg speedWind from/ knotsBaromVisibWave heightAir tempDewpointWater temp
2016-May-03 06:33N 53°33' E 009°56'0 0.0
2016-May-03 05:33N 53°33' E 009°56'0 0.0
2016-May-03 04:33N 53°33' E 009°56'0 0.0
2016-May-03 03:33N 53°33' E 009°56'0 0.0
2016-May-03 02:33N 53°33' E 009°56'0 0.0
2016-May-03 01:33N 53°33' E 009°56'0 0.0
2016-May-03 00:33N 53°33' E 009°56'0 0.0
2016-May-02 23:33N 53°33' E 009°56'0 0.0
2016-May-02 22:33N 53°33' E 009°56'0 0.0
2016-May-02 21:33N 53°33' E 009°56'0 0.0
2016-May-02 20:33N 53°33' E 009°56'0 0.0
2016-May-02 19:33N 53°33' E 009°56'0 0.0
2016-May-02 18:33N 53°33' E 009°56'0 0.0
2016-May-02 17:33N 53°33' E 009°56'0 0.0
2016-May-02 16:33N 53°33' E 009°56'0 0.0
2016-May-02 15:33N 53°33' E 009°56'0 0.0
2016-May-02 14:33N 53°33' E 009°56'0 0.0
2016-May-02 13:33N 53°33' E 009°56'0 0.0
2016-May-02 12:33N 53°33' E 009°56'0 0.0
2016-May-02 11:33N 53°33' E 009°56'0 0.0
2016-May-02 10:33N 53°33' E 009°56'0 0.0
2016-May-02 09:33N 53°33' E 009°56'0 0.0
2016-May-02 08:33N 53°33' E 009°56'0 0.0
2016-May-02 07:33N 53°33' E 009°56'0 0.0
2016-May-02 06:33N 53°33' E 009°56'0 0.0
2016-May-02 05:33N 53°33' E 009°56'0 0.0
2016-May-02 04:33N 53°33' E 009°56'0 0.0
2016-May-02 03:33N 53°33' E 009°56'0 0.0
2016-May-02 02:33N 53°33' E 009°56'0 0.0
2016-May-02 01:33N 53°33' E 009°56'0 0.0
2016-May-02 00:33N 53°33' E 009°56'0 0.0
2016-May-01 23:33N 53°33' E 009°56'0 0.0
2016-May-01 22:33N 53°33' E 009°56'0 0.0
2016-May-01 21:33N 53°33' E 009°56'0 0.0
2016-May-01 20:33N 53°33' E 009°56'0 0.0
2016-May-01 19:33N 53°33' E 009°56'0 0.0
2016-May-01 18:33N 53°33' E 009°56'0 0.0
2016-May-01 17:33N 53°33' E 009°56'0 0.0
2016-May-01 16:33N 53°33' E 009°56'0 0.0
2016-May-01 15:33N 53°33' E 009°56'0 0.3
2016-May-01 14:33N 53°33' E 009°56'1 0.8
2016-May-01 13:34N 53°33' E 009°57'2 1.9
2016-May-01 12:33N 53°33' E 009°54'3 2.5
2016-May-01 11:32N 53°33' E 009°59'0 0.0
2016-May-01 10:32N 53°33' E 009°59'0 0.0
2016-May-01 09:33N 53°33' E 009°59'5 4.7
2016-May-01 08:33N 53°33' E 009°51'5 4.7
2016-May-01 07:33N 53°32' E 009°59'0 0.1
2016-May-01 06:33N 53°33' E 009°59'2 1.8
2016-May-01 05:32N 53°33' E 009°56'0 0.0
2016-May-01 04:32N 53°33' E 009°56'0 0.0
2016-May-01 03:32N 53°33' E 009°56'0 0.0
2016-May-01 02:32N 53°33' E 009°56'0 0.0
2016-May-01 01:32N 53°33' E 009°56'0 0.0
2016-May-01 00:32N 53°33' E 009°56'0 0.0
2016-Apr-30 23:32N 53°33' E 009°56'0 0.0
2016-Apr-30 22:32N 53°33' E 009°56'0 0.0
2016-Apr-30 21:32N 53°33' E 009°56'0 0.0
2016-Apr-30 20:32N 53°33' E 009°56'0 0.0
2016-Apr-30 19:32N 53°33' E 009°56'0 0.0
2016-Apr-30 18:33N 53°33' E 009°56'6 6.1
2016-Apr-30 17:34N 53°34' E 009°45'9 9.4
2016-Apr-30 16:34N 53°38' E 009°32'10 9.5
2016-Apr-30 15:33N 53°46' E 009°23'9 8.9
2016-Apr-30 14:34N 53°53' E 009°13'8 7.7
2016-Apr-30 13:33N 53°51' E 008°60'6 6.4
2016-Apr-30 12:33N 53°50' E 008°49'5 4.5
2016-Apr-30 11:33N 53°53' E 008°42'4 4.4
2016-Apr-30 10:33N 53°56' E 008°39'4 4.3
2016-Apr-30 09:34N 53°58' E 008°32'5 4.6
2016-Apr-30 08:33N 53°59' E 008°24'6 5.9
2016-Apr-30 07:32N 53°59' E 008°14'6 6.1
2016-Apr-30 06:33N 53°58' E 008°04'6 6.4
2016-Apr-30 05:33N 53°56' E 007°54'7 7.1
2016-Apr-30 04:33N 53°54' E 007°42'8 7.6
2016-Apr-30 03:33N 53°52' E 007°30'8 8.0
2016-Apr-30 02:33N 53°51' E 007°16'8 8.3
2016-Apr-30 01:33N 53°49' E 007°03'9 8.8
2016-Apr-30 00:33N 53°47' E 006°48'9 9.4
2016-Apr-29 23:33N 53°44' E 006°33'9 8.9
2016-Apr-29 22:33N 53°41' E 006°19'9 8.5
2016-Apr-29 21:33N 53°38' E 006°05'8 8.2
2016-Apr-29 20:34N 53°36' E 005°52'8 7.6
2016-Apr-29 19:34N 53°34' E 005°40'7 7.4
2016-Apr-29 18:34N 53°31' E 005°28'8 7.6
2016-Apr-29 17:33N 53°29' E 005°16'8 7.6
2016-Apr-29 16:32N 53°25' E 005°04'6 2.7
2016-Apr-29 14:14N 53°20' E 005°07'4 6.0
2016-Apr-29 13:30N 53°15' E 005°10'7 7.4
2016-Apr-29 12:33N 53°12' E 005°19'3 3.3
2016-Apr-29 11:31N 53°11' E 005°25'0 0.0
2016-Apr-29 10:31N 53°11' E 005°25'0 0.0
2016-Apr-29 09:31N 53°11' E 005°25'0 0.0
2016-Apr-29 08:31N 53°11' E 005°25'0 0.0
2016-Apr-29 07:31N 53°11' E 005°25'0 0.0
2016-Apr-29 06:31N 53°11' E 005°25'0 0.0
2016-Apr-29 05:31N 53°11' E 005°25'0 0.0
2016-Apr-29 04:31N 53°11' E 005°25'0 0.0
2016-Apr-29 03:31N 53°11' E 005°25'0 0.0
2016-Apr-29 02:31N 53°11' E 005°25'0 0.0
2016-Apr-29 01:31N 53°11' E 005°25'0 0.0
2016-Apr-29 00:31N 53°11' E 005°25'0 0.0
2016-Apr-28 23:31N 53°11' E 005°25'0 0.0
2016-Apr-28 22:31N 53°11' E 005°25'0 0.0
2016-Apr-28 21:31N 53°11' E 005°25'0 0.0
2016-Apr-28 20:31N 53°11' E 005°25'0 0.0
2016-Apr-28 19:31N 53°11' E 005°25'0 0.0
2016-Apr-28 18:31N 53°11' E 005°25'0 0.0
2016-Apr-28 17:31N 53°11' E 005°25'0 0.0
2016-Apr-28 16:31N 53°11' E 005°25'0 0.0
2016-Apr-28 15:31N 53°11' E 005°25'0 0.0
2016-Apr-28 14:31N 53°11' E 005°25'0 0.0
2016-Apr-28 13:31N 53°11' E 005°25'0 0.0
2016-Apr-28 12:31N 53°11' E 005°25'0 0.3
2016-Apr-28 11:33N 53°10' E 005°25'0 0.0
2016-Apr-28 10:33N 53°10' E 005°25'0 0.0
2016-Apr-28 09:33N 53°10' E 005°25'0 0.0
2016-Apr-28 08:33N 53°10' E 005°25'0 0.0
2016-Apr-28 07:33N 53°10' E 005°25'0 0.0
2016-Apr-28 06:33N 53°10' E 005°25'0 0.0
2016-Apr-28 05:33N 53°10' E 005°25'0 0.0
2016-Apr-28 04:32N 53°10' E 005°25'0 0.0
2016-Apr-28 03:33N 53°10' E 005°25'0 0.0
2016-Apr-28 02:33N 53°10' E 005°25'0 0.0
2016-Apr-28 01:33N 53°10' E 005°25'0 0.0
2016-Apr-28 00:33N 53°10' E 005°25'0 0.0
2016-Apr-27 23:33N 53°10' E 005°25'0 0.0
2016-Apr-27 22:33N 53°10' E 005°25'0 0.0
2016-Apr-27 21:33N 53°10' E 005°25'0 0.0
2016-Apr-27 20:33N 53°10' E 005°25'0 0.0
2016-Apr-27 19:33N 53°10' E 005°25'0 0.0
2016-Apr-27 18:33N 53°10' E 005°25'0 0.0
2016-Apr-27 17:33N 53°10' E 005°25'0 0.0
2016-Apr-27 16:33N 53°10' E 005°25'0 0.0
2016-Apr-27 15:33N 53°10' E 005°25'0 0.0
2016-Apr-27 14:33N 53°10' E 005°25'0 0.0
2016-Apr-27 13:33N 53°10' E 005°25'0 0.0
2016-Apr-27 12:33N 53°10' E 005°25'0 0.0
2016-Apr-27 11:33N 53°10' E 005°25'0 0.0
2016-Apr-27 10:33N 53°10' E 005°25'0 0.0
2016-Apr-27 09:33N 53°10' E 005°25'0 0.0
2016-Apr-27 08:33N 53°10' E 005°25'0 0.0
2016-Apr-27 07:33N 53°10' E 005°25'0 0.0
2016-Apr-27 06:33N 53°10' E 005°25'0 0.0
2016-Apr-27 05:33N 53°10' E 005°25'0 0.0
2016-Apr-27 04:33N 53°10' E 005°25'0 0.0
2016-Apr-27 03:33N 53°10' E 005°25'0 0.0
2016-Apr-27 02:33N 53°10' E 005°25'0 0.0
2016-Apr-27 01:33N 53°10' E 005°25'0 0.0
2016-Apr-27 00:33N 53°10' E 005°25'0 0.0
2016-Apr-26 23:33N 53°10' E 005°25'0 0.0
2016-Apr-26 22:33N 53°10' E 005°25'0 0.0
2016-Apr-26 21:33N 53°10' E 005°25'0 0.0
2016-Apr-26 20:33N 53°10' E 005°25'0 0.0
2016-Apr-26 19:33N 53°10' E 005°25'0 0.0
2016-Apr-26 18:33N 53°10' E 005°25'0 0.0
2016-Apr-26 17:33N 53°10' E 005°25'0 0.0
2016-Apr-26 16:33N 53°10' E 005°25'0 0.0
2016-Apr-26 15:33N 53°10' E 005°25'0 0.0
2016-Apr-26 14:33N 53°10' E 005°25'0 0.0
2016-Apr-26 13:33N 53°10' E 005°25'0 0.0
2016-Apr-26 12:33N 53°10' E 005°25'0 0.0
2016-Apr-26 11:33N 53°10' E 005°25'0 0.0
2016-Apr-26 10:33N 53°10' E 005°25'0 0.0
2016-Apr-26 09:33N 53°10' E 005°25'0 0.0
2016-Apr-26 08:33N 53°10' E 005°25'0 0.0
2016-Apr-26 07:33N 53°10' E 005°25'0 0.0
2016-Apr-26 06:30N 53°10' E 005°25'0 0.0
2016-Apr-26 05:33N 53°10' E 005°25'0 0.0
2016-Apr-26 04:30N 53°10' E 005°25'0 0.0
2016-Apr-26 03:33N 53°10' E 005°25'0 0.0
2016-Apr-26 02:33N 53°10' E 005°25'0 0.0
2016-Apr-26 01:30N 53°10' E 005°25'0 0.0
2016-Apr-26 00:33N 53°10' E 005°25'0 0.0
2016-Apr-25 23:33N 53°10' E 005°25'0 0.0
2016-Apr-25 22:33N 53°10' E 005°25'0 0.0
2016-Apr-25 21:33N 53°10' E 005°25'0 0.0
2016-Apr-25 20:33N 53°10' E 005°25'0 0.0
2016-Apr-25 19:33N 53°10' E 005°25'0 0.0
2016-Apr-25 18:33N 53°10' E 005°25'0 0.0
2016-Apr-25 17:33N 53°10' E 005°25'0 0.0
2016-Apr-25 16:33N 53°10' E 005°25'0 0.0
2016-Apr-25 15:30N 53°10' E 005°25'0 0.0
2016-Apr-25 14:33N 53°10' E 005°25'0 0.0
2016-Apr-25 13:33N 53°10' E 005°25'0 0.0
2016-Apr-25 12:33N 53°10' E 005°25'0 0.0
2016-Apr-25 11:33N 53°10' E 005°25'0 0.0
2016-Apr-25 10:33N 53°10' E 005°25'0 0.0
2016-Apr-25 09:33N 53°10' E 005°25'0 0.0
2016-Apr-25 08:33N 53°10' E 005°25'0 0.0
2016-Apr-25 07:33N 53°10' E 005°25'0 0.0
2016-Apr-25 06:33N 53°10' E 005°25'0 0.0
2016-Apr-25 05:33N 53°10' E 005°25'0 0.0
2016-Apr-25 04:33N 53°10' E 005°25'0 0.0
2016-Apr-25 03:33N 53°10' E 005°25'0 0.0
2016-Apr-25 02:33N 53°10' E 005°25'0 0.0
2016-Apr-25 01:33N 53°10' E 005°25'0 0.0
2016-Apr-25 00:33N 53°10' E 005°25'0 0.0
2016-Apr-24 23:33N 53°10' E 005°25'0 0.0
2016-Apr-24 22:33N 53°10' E 005°25'0 0.0
2016-Apr-24 21:33N 53°10' E 005°25'0 0.0
2016-Apr-24 20:33N 53°10' E 005°25'0 0.0
2016-Apr-24 19:33N 53°10' E 005°25'0 0.0
2016-Apr-24 18:33N 53°10' E 005°25'0 0.0
2016-Apr-24 17:30N 53°10' E 005°25'0 0.0
2016-Apr-24 16:33N 53°10' E 005°25'0 0.0
2016-Apr-24 15:33N 53°10' E 005°25'0 0.0
2016-Apr-24 14:33N 53°10' E 005°25'0 0.0
2016-Apr-24 13:33N 53°10' E 005°25'0 0.0
2016-Apr-24 12:33N 53°10' E 005°25'0 0.0
2016-Apr-24 11:33N 53°10' E 005°25'0 0.0
2016-Apr-24 10:33N 53°10' E 005°25'0 0.0
2016-Apr-24 09:33N 53°10' E 005°25'0 0.0
2016-Apr-24 08:33N 53°10' E 005°25'0 0.0
2016-Apr-24 07:33N 53°10' E 005°25'0 0.0
2016-Apr-24 06:33N 53°10' E 005°25'0 0.0
2016-Apr-24 05:33N 53°10' E 005°25'0 0.0
2016-Apr-24 04:33N 53°10' E 005°25'0 0.0
2016-Apr-24 03:33N 53°10' E 005°25'0 0.0
2016-Apr-24 02:33N 53°10' E 005°25'0 0.0
2016-Apr-24 01:33N 53°10' E 005°25'0 0.0
2016-Apr-24 00:33N 53°10' E 005°25'0 0.0
2016-Apr-23 23:33N 53°10' E 005°25'0 0.0
2016-Apr-23 22:33N 53°10' E 005°25'0 0.0
2016-Apr-23 21:33N 53°10' E 005°25'0 0.0
2016-Apr-23 20:33N 53°10' E 005°25'0 0.0
2016-Apr-23 19:33N 53°10' E 005°25'0 0.0
2016-Apr-23 18:33N 53°10' E 005°25'0 0.0
2016-Apr-23 17:33N 53°10' E 005°25'0 0.0
2016-Apr-23 16:33N 53°10' E 005°25'0 0.0
2016-Apr-23 15:33N 53°10' E 005°25'0 0.0
2016-Apr-23 14:33N 53°10' E 005°25'0 0.0
2016-Apr-23 13:33N 53°10' E 005°25'0 0.0
2016-Apr-23 12:33N 53°10' E 005°25'0 0.0
2016-Apr-23 11:33N 53°10' E 005°25'0 0.0
2016-Apr-23 10:33N 53°10' E 005°25'0 0.0
2016-Apr-23 09:30N 53°10' E 005°25'0 0.0
2016-Apr-23 08:33N 53°10' E 005°25'0 0.0
2016-Apr-23 07:33N 53°10' E 005°25'0 0.0
2016-Apr-23 06:33N 53°10' E 005°25'  
Track history (hours):
 
Tides and Currents Weather Stations Pressure Air Temp Water Temp Dewpoint Dewpoint Depression Visibility Wind Speed Wind Dir Waves Ship Positions

Atlantis (Netherlands)

Ship's website: http://www.tallship-company.com/artemis/gb_atlantis.htm

Last reported at 2016-May-03 06:33 UTC. Time now 2016-May-03 06:53 UTC.
Position N 53°33' E 009°56'.

Length 40 m; draft 4.5 m.

Type: Sailing vessel. MMSI: 246253000.

Date/timePositionNaut miles runAvg speedWind from/ knotsBaromVisibWave heightAir tempDewpointWater temp
2016-May-03 06:33N 53°33' E 009°56'0 0.0
2016-May-03 05:33N 53°33' E 009°56'0 0.0
2016-May-03 04:33N 53°33' E 009°56'0 0.0
2016-May-03 03:33N 53°33' E 009°56'0 0.0
2016-May-03 02:33N 53°33' E 009°56'0 0.0
2016-May-03 01:33N 53°33' E 009°56'0 0.0
2016-May-03 00:33N 53°33' E 009°56'0 0.0
2016-May-02 23:33N 53°33' E 009°56'0 0.0
2016-May-02 22:33N 53°33' E 009°56'0 0.0
2016-May-02 21:33N 53°33' E 009°56'0 0.0
2016-May-02 20:33N 53°33' E 009°56'0 0.0
2016-May-02 19:33N 53°33' E 009°56'0 0.0
2016-May-02 18:33N 53°33' E 009°56'0 0.0
2016-May-02 17:33N 53°33' E 009°56'0 0.0
2016-May-02 16:33N 53°33' E 009°56'0 0.0
2016-May-02 15:33N 53°33' E 009°56'0 0.0
2016-May-02 14:33N 53°33' E 009°56'0 0.0
2016-May-02 13:33N 53°33' E 009°56'0 0.0
2016-May-02 12:33N 53°33' E 009°56'0 0.0
2016-May-02 11:33N 53°33' E 009°56'0 0.0
2016-May-02 10:33N 53°33' E 009°56'0 0.0
2016-May-02 09:33N 53°33' E 009°56'0 0.0
2016-May-02 08:33N 53°33' E 009°56'0 0.0
2016-May-02 07:33N 53°33' E 009°56'0 0.0
2016-May-02 06:33N 53°33' E 009°56'0 0.0
2016-May-02 05:33N 53°33' E 009°56'0 0.0
2016-May-02 04:33N 53°33' E 009°56'0 0.0
2016-May-02 03:33N 53°33' E 009°56'0 0.0
2016-May-02 02:33N 53°33' E 009°56'0 0.0
2016-May-02 01:33N 53°33' E 009°56'0 0.0
2016-May-02 00:33N 53°33' E 009°56'0 0.0
2016-May-01 23:33N 53°33' E 009°56'0 0.0
2016-May-01 22:33N 53°33' E 009°56'0 0.0
2016-May-01 21:33N 53°33' E 009°56'0 0.0
2016-May-01 20:33N 53°33' E 009°56'0 0.0
2016-May-01 19:33N 53°33' E 009°56'0 0.0
2016-May-01 18:33N 53°33' E 009°56'0 0.0
2016-May-01 17:33N 53°33' E 009°56'0 0.0
2016-May-01 16:33N 53°33' E 009°56'0 0.0
2016-May-01 15:33N 53°33' E 009°56'0 0.3
2016-May-01 14:33N 53°33' E 009°56'1 0.8
2016-May-01 13:34N 53°33' E 009°57'2 1.9
2016-May-01 12:33N 53°33' E 009°54'3 2.5
2016-May-01 11:32N 53°33' E 009°59'0 0.0
2016-May-01 10:32N 53°33' E 009°59'0 0.0
2016-May-01 09:33N 53°33' E 009°59'5 4.7
2016-May-01 08:33N 53°33' E 009°51'5 4.7
2016-May-01 07:33N 53°32' E 009°59'0 0.1
2016-May-01 06:33N 53°33' E 009°59'2 1.8
2016-May-01 05:32N 53°33' E 009°56'0 0.0
2016-May-01 04:32N 53°33' E 009°56'0 0.0
2016-May-01 03:32N 53°33' E 009°56'0 0.0
2016-May-01 02:32N 53°33' E 009°56'0 0.0
2016-May-01 01:32N 53°33' E 009°56'0 0.0
2016-May-01 00:32N 53°33' E 009°56'0 0.0
2016-Apr-30 23:32N 53°33' E 009°56'0 0.0
2016-Apr-30 22:32N 53°33' E 009°56'0 0.0
2016-Apr-30 21:32N 53°33' E 009°56'0 0.0
2016-Apr-30 20:32N 53°33' E 009°56'0 0.0
2016-Apr-30 19:32N 53°33' E 009°56'0 0.0
2016-Apr-30 18:33N 53°33' E 009°56'6 6.1
2016-Apr-30 17:34N 53°34' E 009°45'9 9.4
2016-Apr-30 16:34N 53°38' E 009°32'10 9.5
2016-Apr-30 15:33N 53°46' E 009°23'9 8.9
2016-Apr-30 14:34N 53°53' E 009°13'8 7.7
2016-Apr-30 13:33N 53°51' E 008°60'6 6.4
2016-Apr-30 12:33N 53°50' E 008°49'5 4.5
2016-Apr-30 11:33N 53°53' E 008°42'4 4.4
2016-Apr-30 10:33N 53°56' E 008°39'4 4.3
2016-Apr-30 09:34N 53°58' E 008°32'5 4.6
2016-Apr-30 08:33N 53°59' E 008°24'6 5.9
2016-Apr-30 07:32N 53°59' E 008°14'6 6.1
2016-Apr-30 06:33N 53°58' E 008°04'6 6.4
2016-Apr-30 05:33N 53°56' E 007°54'7 7.1
2016-Apr-30 04:33N 53°54' E 007°42'8 7.6
2016-Apr-30 03:33N 53°52' E 007°30'8 8.0
2016-Apr-30 02:33N 53°51' E 007°16'8 8.3
2016-Apr-30 01:33N 53°49' E 007°03'9 8.8
2016-Apr-30 00:33N 53°47' E 006°48'9 9.4
2016-Apr-29 23:33N 53°44' E 006°33'9 8.9
2016-Apr-29 22:33N 53°41' E 006°19'9 8.5
2016-Apr-29 21:33N 53°38' E 006°05'8 8.2
2016-Apr-29 20:34N 53°36' E 005°52'8 7.6
2016-Apr-29 19:34N 53°34' E 005°40'7 7.4
2016-Apr-29 18:34N 53°31' E 005°28'8 7.6
2016-Apr-29 17:33N 53°29' E 005°16'8 7.6
2016-Apr-29 16:32N 53°25' E 005°04'6 2.7
2016-Apr-29 14:14N 53°20' E 005°07'4 6.0
2016-Apr-29 13:30N 53°15' E 005°10'7 7.4
2016-Apr-29 12:33N 53°12' E 005°19'3 3.3
2016-Apr-29 11:31N 53°11' E 005°25'0 0.0
2016-Apr-29 10:31N 53°11' E 005°25'0 0.0
2016-Apr-29 09:31N 53°11' E 005°25'0 0.0
2016-Apr-29 08:31N 53°11' E 005°25'0 0.0
2016-Apr-29 07:31N 53°11' E 005°25'0 0.0
2016-Apr-29 06:31N 53°11' E 005°25'0 0.0
2016-Apr-29 05:31N 53°11' E 005°25'0 0.0
2016-Apr-29 04:31N 53°11' E 005°25'0 0.0
2016-Apr-29 03:31N 53°11' E 005°25'0 0.0
2016-Apr-29 02:31N 53°11' E 005°25'0 0.0
2016-Apr-29 01:31N 53°11' E 005°25'0 0.0
2016-Apr-29 00:31N 53°11' E 005°25'0 0.0
2016-Apr-28 23:31N 53°11' E 005°25'0 0.0
2016-Apr-28 22:31N 53°11' E 005°25'0 0.0
2016-Apr-28 21:31N 53°11' E 005°25'0 0.0
2016-Apr-28 20:31N 53°11' E 005°25'0 0.0
2016-Apr-28 19:31N 53°11' E 005°25'0 0.0
2016-Apr-28 18:31N 53°11' E 005°25'0 0.0
2016-Apr-28 17:31N 53°11' E 005°25'0 0.0
2016-Apr-28 16:31N 53°11' E 005°25'0 0.0
2016-Apr-28 15:31N 53°11' E 005°25'0 0.0
2016-Apr-28 14:31N 53°11' E 005°25'0 0.0
2016-Apr-28 13:31N 53°11' E 005°25'0 0.0
2016-Apr-28 12:31N 53°11' E 005°25'0 0.3
2016-Apr-28 11:33N 53°10' E 005°25'0 0.0
2016-Apr-28 10:33N 53°10' E 005°25'0 0.0
2016-Apr-28 09:33N 53°10' E 005°25'0 0.0
2016-Apr-28 08:33N 53°10' E 005°25'0 0.0
2016-Apr-28 07:33N 53°10' E 005°25'0 0.0
2016-Apr-28 06:33N 53°10' E 005°25'0 0.0
2016-Apr-28 05:33N 53°10' E 005°25'0 0.0
2016-Apr-28 04:32N 53°10' E 005°25'0 0.0
2016-Apr-28 03:33N 53°10' E 005°25'0 0.0
2016-Apr-28 02:33N 53°10' E 005°25'0 0.0
2016-Apr-28 01:33N 53°10' E 005°25'0 0.0
2016-Apr-28 00:33N 53°10' E 005°25'0 0.0
2016-Apr-27 23:33N 53°10' E 005°25'0 0.0
2016-Apr-27 22:33N 53°10' E 005°25'0 0.0
2016-Apr-27 21:33N 53°10' E 005°25'0 0.0
2016-Apr-27 20:33N 53°10' E 005°25'0 0.0
2016-Apr-27 19:33N 53°10' E 005°25'0 0.0
2016-Apr-27 18:33N 53°10' E 005°25'0 0.0
2016-Apr-27 17:33N 53°10' E 005°25'0 0.0
2016-Apr-27 16:33N 53°10' E 005°25'0 0.0
2016-Apr-27 15:33N 53°10' E 005°25'0 0.0
2016-Apr-27 14:33N 53°10' E 005°25'0 0.0
2016-Apr-27 13:33N 53°10' E 005°25'0 0.0
2016-Apr-27 12:33N 53°10' E 005°25'0 0.0
2016-Apr-27 11:33N 53°10' E 005°25'0 0.0
2016-Apr-27 10:33N 53°10' E 005°25'0 0.0
2016-Apr-27 09:33N 53°10' E 005°25'0 0.0
2016-Apr-27 08:33N 53°10' E 005°25'0 0.0
2016-Apr-27 07:33N 53°10' E 005°25'0 0.0
2016-Apr-27 06:33N 53°10' E 005°25'0 0.0
2016-Apr-27 05:33N 53°10' E 005°25'0 0.0
2016-Apr-27 04:33N 53°10' E 005°25'0 0.0
2016-Apr-27 03:33N 53°10' E 005°25'0 0.0
2016-Apr-27 02:33N 53°10' E 005°25'0 0.0
2016-Apr-27 01:33N 53°10' E 005°25'0 0.0
2016-Apr-27 00:33N 53°10' E 005°25'0 0.0
2016-Apr-26 23:33N 53°10' E 005°25'0 0.0
2016-Apr-26 22:33N 53°10' E 005°25'0 0.0
2016-Apr-26 21:33N 53°10' E 005°25'0 0.0
2016-Apr-26 20:33N 53°10' E 005°25'0 0.0
2016-Apr-26 19:33N 53°10' E 005°25'0 0.0
2016-Apr-26 18:33N 53°10' E 005°25'0 0.0
2016-Apr-26 17:33N 53°10' E 005°25'0 0.0
2016-Apr-26 16:33N 53°10' E 005°25'0 0.0
2016-Apr-26 15:33N 53°10' E 005°25'0 0.0
2016-Apr-26 14:33N 53°10' E 005°25'0 0.0
2016-Apr-26 13:33N 53°10' E 005°25'0 0.0
2016-Apr-26 12:33N 53°10' E 005°25'0 0.0
2016-Apr-26 11:33N 53°10' E 005°25'0 0.0
2016-Apr-26 10:33N 53°10' E 005°25'0 0.0
2016-Apr-26 09:33N 53°10' E 005°25'0 0.0
2016-Apr-26 08:33N 53°10' E 005°25'0 0.0
2016-Apr-26 07:33N 53°10' E 005°25'0 0.0
2016-Apr-26 06:30N 53°10' E 005°25'0 0.0
2016-Apr-26 05:33N 53°10' E 005°25'0 0.0
2016-Apr-26 04:30N 53°10' E 005°25'0 0.0
2016-Apr-26 03:33N 53°10' E 005°25'0 0.0
2016-Apr-26 02:33N 53°10' E 005°25'0 0.0
2016-Apr-26 01:30N 53°10' E 005°25'0 0.0
2016-Apr-26 00:33N 53°10' E 005°25'0 0.0
2016-Apr-25 23:33N 53°10' E 005°25'0 0.0
2016-Apr-25 22:33N 53°10' E 005°25'0 0.0
2016-Apr-25 21:33N 53°10' E 005°25'0 0.0
2016-Apr-25 20:33N 53°10' E 005°25'0 0.0
2016-Apr-25 19:33N 53°10' E 005°25'0 0.0
2016-Apr-25 18:33N 53°10' E 005°25'0 0.0
2016-Apr-25 17:33N 53°10' E 005°25'0 0.0
2016-Apr-25 16:33N 53°10' E 005°25'0 0.0
2016-Apr-25 15:30N 53°10' E 005°25'0 0.0
2016-Apr-25 14:33N 53°10' E 005°25'0 0.0
2016-Apr-25 13:33N 53°10' E 005°25'0 0.0
2016-Apr-25 12:33N 53°10' E 005°25'0 0.0
2016-Apr-25 11:33N 53°10' E 005°25'0 0.0
2016-Apr-25 10:33N 53°10' E 005°25'0 0.0
2016-Apr-25 09:33N 53°10' E 005°25'0 0.0
2016-Apr-25 08:33N 53°10' E 005°25'0 0.0
2016-Apr-25 07:33N 53°10' E 005°25'0 0.0
2016-Apr-25 06:33N 53°10' E 005°25'0 0.0
2016-Apr-25 05:33N 53°10' E 005°25'0 0.0
2016-Apr-25 04:33N 53°10' E 005°25'0 0.0
2016-Apr-25 03:33N 53°10' E 005°25'0 0.0
2016-Apr-25 02:33N 53°10' E 005°25'0 0.0
2016-Apr-25 01:33N 53°10' E 005°25'0 0.0
2016-Apr-25 00:33N 53°10' E 005°25'0 0.0
2016-Apr-24 23:33N 53°10' E 005°25'0 0.0
2016-Apr-24 22:33N 53°10' E 005°25'0 0.0
2016-Apr-24 21:33N 53°10' E 005°25'0 0.0
2016-Apr-24 20:33N 53°10' E 005°25'0 0.0
2016-Apr-24 19:33N 53°10' E 005°25'0 0.0
2016-Apr-24 18:33N 53°10' E 005°25'0 0.0
2016-Apr-24 17:30N 53°10' E 005°25'0 0.0
2016-Apr-24 16:33N 53°10' E 005°25'0 0.0
2016-Apr-24 15:33N 53°10' E 005°25'0 0.0
2016-Apr-24 14:33N 53°10' E 005°25'0 0.0
2016-Apr-24 13:33N 53°10' E 005°25'0 0.0
2016-Apr-24 12:33N 53°10' E 005°25'0 0.0
2016-Apr-24 11:33N 53°10' E 005°25'0 0.0
2016-Apr-24 10:33N 53°10' E 005°25'0 0.0
2016-Apr-24 09:33N 53°10' E 005°25'0 0.0
2016-Apr-24 08:33N 53°10' E 005°25'0 0.0
2016-Apr-24 07:33N 53°10' E 005°25'0 0.0
2016-Apr-24 06:33N 53°10' E 005°25'0 0.0
2016-Apr-24 05:33N 53°10' E 005°25'0 0.0
2016-Apr-24 04:33N 53°10' E 005°25'0 0.0
2016-Apr-24 03:33N 53°10' E 005°25'0 0.0
2016-Apr-24 02:33N 53°10' E 005°25'0 0.0
2016-Apr-24 01:33N 53°10' E 005°25'0 0.0
2016-Apr-24 00:33N 53°10' E 005°25'0 0.0
2016-Apr-23 23:33N 53°10' E 005°25'0 0.0
2016-Apr-23 22:33N 53°10' E 005°25'0 0.0
2016-Apr-23 21:33N 53°10' E 005°25'0 0.0
2016-Apr-23 20:33N 53°10' E 005°25'0 0.0
2016-Apr-23 19:33N 53°10' E 005°25'0 0.0
2016-Apr-23 18:33N 53°10' E 005°25'0 0.0
2016-Apr-23 17:33N 53°10' E 005°25'0 0.0
2016-Apr-23 16:33N 53°10' E 005°25'0 0.0
2016-Apr-23 15:33N 53°10' E 005°25'0 0.0
2016-Apr-23 14:33N 53°10' E 005°25'0 0.0
2016-Apr-23 13:33N 53°10' E 005°25'0 0.0
2016-Apr-23 12:33N 53°10' E 005°25'0 0.0
2016-Apr-23 11:33N 53°10' E 005°25'0 0.0
2016-Apr-23 10:33N 53°10' E 005°25'0 0.0
2016-Apr-23 09:30N 53°10' E 005°25'0 0.0
2016-Apr-23 08:33N 53°10' E 005°25'0 0.0
2016-Apr-23 07:33N 53°10' E 005°25'0 0.0
2016-Apr-23 06:33N 53°10' E 005°25'  

Dump ship's entire track history